Time;durP1;ratioP1;P1;durP2;ratioP2;P2;SDS_P1;SDS_P2;PMS_P1;PMS_P2;Temp;Humidity;BMP_temperature;BMP_pressure;BME280_temperature;BME280_humidity;BME280_pressure;Samples;Min_cycle;Max_cycle;Signal;HPM_P1;HPM_P2
2023/07/18 00:01:08;;;;;;;4.70;2.60;;;;;;;20.99;71.29;100499.53;183646;1234;45977;-84
2023/07/18 00:05:15;;;;;;;4.20;2.80;;;;;;;20.89;72.43;100501.33;184111;1234;44248;-84
2023/07/18 00:09:17;;;;;;;4.50;2.50;;;;;;;20.68;73.91;100509.77;183964;1234;45974;-84
2023/07/18 00:13:20;;;;;;;12.10;4.00;;;;;;;20.39;75.74;100527.58;183348;1233;58159;-83
2023/07/18 00:17:21;;;;;;;4.00;2.60;;;;;;;20.07;77.69;100545.71;183711;1234;46298;-84
2023/07/18 00:21:23;;;;;;;4.10;2.60;;;;;;;19.92;77.77;100562.02;183444;1234;44788;-84
2023/07/18 00:25:25;;;;;;;3.30;2.70;;;;;;;19.86;79.13;100567.38;183823;1234;46190;-84
2023/07/18 00:29:27;;;;;;;6.10;2.70;;;;;;;19.72;79.71;100573.32;183661;1237;46148;-84
2023/07/18 00:33:29;;;;;;;3.00;2.00;;;;;;;19.62;79.88;100570.68;183447;1235;57997;-84
2023/07/18 00:37:32;;;;;;;5.10;3.10;;;;;;;19.53;80.54;100573.30;183306;1234;44672;-84
2023/07/18 00:41:33;;;;;;;3.00;1.80;;;;;;;19.42;81.31;100587.70;183207;1234;46096;-84
2023/07/18 00:45:35;;;;;;;4.10;2.40;;;;;;;19.28;82.51;100592.43;183430;1234;46091;-84
2023/07/18 00:49:37;;;;;;;4.70;2.40;;;;;;;19.22;83.30;100592.44;183345;1234;45971;-85
2023/07/18 00:53:40;;;;;;;3.20;2.10;;;;;;;19.05;84.58;100593.30;183101;1234;59477;-84
2023/07/18 00:57:45;;;;;;;6.10;2.10;;;;;;;18.93;85.11;100588.79;182975;1234;46010;-83
2023/07/18 01:01:47;;;;;;;7.10;3.20;;;;;;;18.81;85.55;100590.53;182854;1234;46008;-84
2023/07/18 01:05:49;;;;;;;6.70;2.30;;;;;;;18.65;86.48;100590.67;182996;1234;45983;-83
2023/07/18 01:09:53;;;;;;;4.40;3.10;;;;;;;18.52;86.98;100591.06;182829;1237;45935;-84
2023/07/18 01:13:55;;;;;;;2.70;2.20;;;;;;;18.42;87.35;100589.32;182988;1238;59831;-84
2023/07/18 01:17:57;;;;;;;5.90;3.50;;;;;;;18.36;87.09;100581.45;182799;1237;45970;-84
2023/07/18 01:21:59;;;;;;;5.00;2.50;;;;;;;18.27;87.08;100578.70;182899;1237;46105;-84
2023/07/18 01:26:01;;;;;;;4.20;1.30;;;;;;;18.08;87.12;100587.89;182967;1235;45776;-84
2023/07/18 01:30:03;;;;;;;4.40;2.00;;;;;;;17.58;89.62;100595.26;182831;1234;46053;-84
2023/07/18 01:34:05;;;;;;;3.50;2.30;;;;;;;17.12;91.69;100603.02;182500;1237;58585;-84
2023/07/18 01:38:06;;;;;;;4.00;3.30;;;;;;;16.70;94.82;100601.23;182586;1234;46128;-83
2023/07/18 01:42:08;;;;;;;5.30;3.00;;;;;;;16.54;95.55;100605.91;182700;1236;46015;-84
2023/07/18 01:46:10;;;;;;;4.80;2.60;;;;;;;16.43;96.51;100609.75;182335;1233;46106;-84
2023/07/18 01:50:12;;;;;;;4.60;2.20;;;;;;;16.48;95.77;100615.11;182459;1237;45870;-84
2023/07/18 01:54:13;;;;;;;6.20;1.90;;;;;;;16.53;96.18;100617.27;182426;1238;58036;-84
2023/07/18 01:58:15;;;;;;;5.10;2.80;;;;;;;16.60;95.77;100627.69;182636;1238;45985;-84
2023/07/18 02:02:18;;;;;;;3.60;2.10;;;;;;;16.65;96.09;100629.88;183039;1233;46089;-84
2023/07/18 02:06:25;;;;;;;7.50;3.80;;;;;;;16.70;95.55;100632.45;182592;1234;44290;-84
2023/07/18 02:10:27;;;;;;;4.50;2.30;;;;;;;16.71;95.87;100631.13;182264;1236;46216;-84
2023/07/18 02:14:28;;;;;;;6.40;3.30;;;;;;;16.75;94.93;100627.89;182664;1235;58063;-83
2023/07/18 02:18:30;;;;;;;3.30;2.50;;;;;;;16.73;94.81;100631.21;182538;1234;45942;-84
2023/07/18 02:22:34;;;;;;;4.00;3.10;;;;;;;16.67;94.79;100635.76;182348;1236;46015;-84
2023/07/18 02:26:36;;;;;;;6.50;3.30;;;;;;;16.63;94.92;100636.04;182514;1234;45973;-84
2023/07/18 02:30:38;;;;;;;7.90;3.30;;;;;;;16.55;95.46;100634.61;182741;1234;46498;-84
2023/07/18 02:34:39;;;;;;;4.50;2.70;;;;;;;16.48;95.70;100635.35;182447;1234;58099;-84
2023/07/18 02:38:41;;;;;;;6.90;2.70;;;;;;;16.41;96.56;100635.17;182487;1234;46269;-84
2023/07/18 02:42:43;;;;;;;4.30;2.70;;;;;;;16.15;99.00;100641.83;182276;1234;46216;-84
2023/07/18 02:46:45;;;;;;;3.60;2.70;;;;;;;15.86;100.00;100643.29;182682;1237;46112;-84
2023/07/18 02:50:48;;;;;;;7.60;3.60;;;;;;;15.73;100.00;100647.57;182427;1233;46084;-84
2023/07/18 02:54:50;;;;;;;6.00;3.70;;;;;;;15.68;100.00;100647.10;182467;1236;57821;-84
2023/07/18 02:58:52;;;;;;;10.00;3.90;;;;;;;15.63;100.00;100648.89;182615;1234;46065;-84
2023/07/18 03:02:54;;;;;;;6.80;4.50;;;;;;;15.64;100.00;100651.84;182489;1237;46024;-84
2023/07/18 03:06:57;;;;;;;9.20;5.20;;;;;;;15.65;100.00;100649.48;182578;1234;46125;-84
2023/07/18 03:11:01;;;;;;;8.00;3.90;;;;;;;15.57;100.00;100658.17;182086;1234;46033;-84
2023/07/18 03:15:04;;;;;;;13.40;7.80;;;;;;;15.45;100.00;100667.43;182174;1237;59978;-83
2023/07/18 03:19:08;;;;;;;14.50;8.30;;;;;;;15.30;100.00;100673.34;182533;1234;45947;-84
2023/07/18 03:23:09;;;;;;;12.50;8.70;;;;;;;15.20;100.00;100677.70;184464;1234;43996;-82
2023/07/18 03:27:13;;;;;;;13.80;6.80;;;;;;;15.23;100.00;100682.17;183257;1237;46205;-82
2023/07/18 03:31:15;;;;;;;6.90;4.40;;;;;;;15.31;100.00;100691.98;182704;1234;46018;-82
2023/07/18 03:35:17;;;;;;;9.20;4.90;;;;;;;15.37;100.00;100695.67;183679;1237;58110;-82
2023/07/18 03:39:19;;;;;;;8.10;3.70;;;;;;;15.57;100.00;100698.61;183341;1237;46085;-82
2023/07/18 03:43:21;;;;;;;6.30;3.20;;;;;;;15.73;100.00;100697.98;184020;1236;46101;-82
2023/07/18 03:47:22;;;;;;;9.70;4.80;;;;;;;15.88;100.00;100698.73;183968;1237;46109;-82
2023/07/18 03:51:24;;;;;;;5.50;3.30;;;;;;;16.05;100.00;100694.35;183340;1237;45994;-82
2023/07/18 03:55:30;;;;;;;13.00;4.90;;;;;;;16.16;100.00;100693.84;182866;1235;58164;-82
2023/07/18 03:59:32;;;;;;;9.90;3.10;;;;;;;16.18;99.99;100699.56;183031;1233;46135;-83
2023/07/18 04:03:35;;;;;;;5.10;3.70;;;;;;;16.26;99.61;100699.42;182349;1233;46137;-82
2023/07/18 04:07:38;;;;;;;6.00;3.50;;;;;;;16.34;98.68;100696.05;182629;1234;46088;-82
2023/07/18 04:11:41;;;;;;;5.80;3.60;;;;;;;16.33;98.03;100695.04;182569;1236;45736;-82
2023/07/18 04:15:42;;;;;;;6.50;3.90;;;;;;;16.46;97.21;100694.64;182425;1238;59627;-83
2023/07/18 04:19:44;;;;;;;13.50;4.60;;;;;;;16.76;97.01;100692.50;182424;1234;45804;-82
2023/07/18 04:23:47;;;;;;;4.80;4.20;;;;;;;17.09;96.10;100690.98;182702;1234;46189;-82
2023/07/18 04:27:49;;;;;;;8.40;3.70;;;;;;;17.59;93.61;100693.77;183974;1237;45954;-83
2023/07/18 04:31:52;;;;;;;5.10;3.00;;;;;;;18.52;87.12;100697.17;183201;1238;45732;-84
2023/07/18 04:35:54;;;;;;;7.00;3.20;;;;;;;19.08;82.45;100703.70;183013;1234;59264;-83
2023/07/18 04:39:55;;;;;;;7.80;2.90;;;;;;;19.53;79.99;100709.60;183233;1237;44059;-84
2023/07/18 04:43:57;;;;;;;8.10;3.50;;;;;;;20.14;76.84;100711.84;183356;1234;46009;-83
2023/07/18 04:47:59;;;;;;;3.90;3.20;;;;;;;20.56;74.20;100710.80;183658;1235;44149;-83
2023/07/18 04:52:01;;;;;;;4.60;3.10;;;;;;;20.95;72.48;100716.38;183414;1237;45966;-83
2023/07/18 04:56:04;;;;;;;2.70;2.30;;;;;;;21.60;70.09;100722.07;183880;1237;58413;-83
2023/07/18 05:00:06;;;;;;;3.80;1.70;;;;;;;22.01;67.95;100734.27;183946;1237;46070;-83
2023/07/18 05:04:08;;;;;;;4.60;2.40;;;;;;;22.09;67.38;100735.29;183897;1234;46074;-83
2023/07/18 05:08:10;;;;;;;6.70;2.50;;;;;;;22.25;66.68;100742.52;183612;1234;46008;-83
2023/07/18 05:12:12;;;;;;;4.00;3.00;;;;;;;22.12;66.91;100744.28;184137;1235;46070;-83
2023/07/18 05:16:14;;;;;;;6.70;2.20;;;;;;;21.94;67.75;100744.23;183896;1234;58141;-83
2023/07/18 05:20:16;;;;;;;7.90;2.40;;;;;;;21.89;68.13;100740.14;184153;1234;45950;-83
2023/07/18 05:24:18;;;;;;;5.50;2.30;;;;;;;22.06;67.71;100741.25;183850;1234;45831;-84
2023/07/18 05:28:20;;;;;;;5.40;1.60;;;;;;;22.32;67.27;100738.96;183892;1234;45916;-83
2023/07/18 05:32:22;;;;;;;2.70;2.30;;;;;;;22.41;66.39;100742.52;183901;1238;46064;-83
2023/07/18 05:36:25;;;;;;;2.90;1.50;;;;;;;22.31;66.03;100745.61;184550;1234;59526;-83
2023/07/18 05:40:27;;;;;;;7.60;1.90;;;;;;;22.15;66.96;100750.03;183951;1233;44878;-83
2023/07/18 05:44:30;;;;;;;4.00;2.40;;;;;;;22.14;67.26;100749.01;183790;1234;46103;-83
2023/07/18 05:48:32;;;;;;;21.00;4.30;;;;;;;21.96;67.22;100754.40;183691;1234;45943;-83
2023/07/18 05:52:34;;;;;;;4.30;2.70;;;;;;;21.97;67.52;100755.73;184052;1235;45951;-83
2023/07/18 05:56:36;;;;;;;3.40;1.80;;;;;;;22.09;67.37;100751.91;184147;1233;57913;-83
2023/07/18 06:00:39;;;;;;;7.80;3.60;;;;;;;21.81;68.30;100755.90;184335;1234;45878;-83
2023/07/18 06:04:41;;;;;;;7.10;2.40;;;;;;;21.90;68.40;100756.19;184323;1235;45873;-83
2023/07/18 06:08:42;;;;;;;15.00;4.00;;;;;;;21.98;67.56;100757.17;184181;1234;44703;-84
2023/07/18 06:12:44;;;;;;;4.30;2.50;;;;;;;21.95;67.32;100753.56;184060;1235;46095;-83
2023/07/18 06:16:46;;;;;;;3.30;1.60;;;;;;;22.05;66.77;100748.27;183797;1235;57106;-83
2023/07/18 06:20:48;;;;;;;4.10;1.70;;;;;;;22.05;66.91;100752.95;183873;1235;46094;-83
2023/07/18 06:24:50;;;;;;;2.90;1.70;;;;;;;22.09;66.86;100754.12;183888;1235;46241;-83
2023/07/18 06:28:52;;;;;;;2.40;1.40;;;;;;;22.22;67.11;100756.65;183952;1235;45940;-83
2023/07/18 06:32:56;;;;;;;2.00;1.40;;;;;;;22.40;65.91;100760.39;184068;1235;45992;-83
2023/07/18 06:37:01;;;;;;;4.00;2.10;;;;;;;22.79;64.63;100761.69;184260;1234;58058;-84
2023/07/18 06:41:04;;;;;;;;;;;;;;;23.08;64.16;100759.12;184150;1233;45928;-83
2023/07/18 06:45:07;;;;;;;2.10;1.30;;;;;;;23.13;62.84;100755.33;184489;1233;43575;-83
2023/07/18 06:49:09;;;;;;;3.00;1.60;;;;;;;23.24;62.25;100760.55;184976;1235;203019;-83
2023/07/18 06:53:11;;;;;;;3.30;1.20;;;;;;;23.23;61.36;100762.26;184467;1235;46121;-83
2023/07/18 06:57:15;;;;;;;4.90;1.50;;;;;;;23.32;61.46;100758.48;184849;1235;58099;-83
2023/07/18 07:01:17;;;;;;;2.60;1.70;;;;;;;23.42;60.74;100756.20;184460;1235;44739;-83
2023/07/18 07:05:19;;;;;;;2.50;1.30;;;;;;;23.49;59.64;100754.13;184404;1235;45900;-83
2023/07/18 07:09:21;;;;;;;2.80;1.40;;;;;;;23.55;59.85;100754.70;184298;1235;45979;-83
2023/07/18 07:13:23;;;;;;;1.50;1.30;;;;;;;23.69;58.86;100748.41;184414;1235;46054;-83
2023/07/18 07:17:25;;;;;;;2.90;1.70;;;;;;;23.86;59.95;100751.21;184526;1234;57004;-83
2023/07/18 07:21:27;;;;;;;3.00;1.10;;;;;;;23.90;57.21;100748.05;184417;1234;45961;-84
2023/07/18 07:25:31;;;;;;;2.80;1.00;;;;;;;23.90;57.09;100748.60;184694;1233;46033;-84
2023/07/18 07:29:33;;;;;;;1.70;1.10;;;;;;;24.00;56.93;100745.16;184382;1237;45908;-84
2023/07/18 07:33:35;;;;;;;1.70;1.00;;;;;;;24.10;56.37;100740.75;184703;1235;46066;-84
2023/07/18 07:37:40;;;;;;;4.10;1.60;;;;;;;24.12;57.30;100738.50;184803;1234;58192;-84
2023/07/18 07:41:42;;;;;;;4.00;1.50;;;;;;;24.25;56.39;100739.66;184819;1237;45908;-84
2023/07/18 07:45:44;;;;;;;1.80;0.80;;;;;;;24.14;55.85;100743.46;184493;1235;46088;-83
2023/07/18 07:49:46;;;;;;;2.50;1.10;;;;;;;24.10;54.93;100741.42;184642;1237;46013;-84
2023/07/18 07:53:48;;;;;;;8.60;3.20;;;;;;;24.35;55.93;100741.68;184403;1235;44005;-84
2023/07/18 07:57:50;;;;;;;1.90;1.30;;;;;;;24.47;55.90;100740.95;184522;1237;58107;-84
2023/07/18 08:01:52;;;;;;;6.30;2.10;;;;;;;24.58;55.74;100742.20;184741;1235;45917;-84
2023/07/18 08:05:55;;;;;;;1.60;1.20;;;;;;;24.80;54.15;100737.02;184598;1235;46304;-84
2023/07/18 08:09:57;;;;;;;1.60;1.10;;;;;;;24.89;52.12;100734.04;184766;1234;45298;-84
2023/07/18 08:13:59;;;;;;;5.20;1.40;;;;;;;24.91;52.01;100739.27;184741;1235;44620;-83
2023/07/18 08:18:01;;;;;;;1.30;0.70;;;;;;;24.96;52.47;100728.56;184732;1237;57911;-84
2023/07/18 08:22:04;;;;;;;2.00;0.80;;;;;;;25.04;51.77;100725.06;184676;1234;43556;-83
2023/07/18 08:26:06;;;;;;;3.70;1.60;;;;;;;25.11;51.51;100722.09;184943;1234;45941;-84
2023/07/18 08:30:08;;;;;;;1.20;0.80;;;;;;;25.20;50.61;100716.93;184439;1235;44812;-83
2023/07/18 08:34:11;;;;;;;6.50;1.70;;;;;;;25.35;52.23;100711.36;184614;1233;44091;-83
2023/07/18 08:38:13;;;;;;;1.40;1.30;;;;;;;25.27;52.08;100705.85;184550;1235;59287;-83
2023/07/18 08:42:19;;;;;;;3.90;1.00;;;;;;;25.16;51.46;100703.16;185199;1234;44588;-83
2023/07/18 08:46:21;;;;;;;1.90;1.00;;;;;;;25.05;51.46;100704.39;184820;1235;43470;-83
2023/07/18 08:50:26;;;;;;;2.50;1.20;;;;;;;25.00;51.94;100702.77;184671;1233;45993;-83
2023/07/18 08:54:28;;;;;;;30.50;5.50;;;;;;;25.15;52.23;100691.19;184797;1234;46004;-84
2023/07/18 08:58:30;;;;;;;4.40;1.10;;;;;;;25.32;50.18;100686.40;184559;1234;57764;-84
2023/07/18 09:02:32;;;;;;;4.20;1.10;;;;;;;25.31;50.54;100683.35;184724;1234;45932;-84
2023/07/18 09:06:34;;;;;;;1.80;1.20;;;;;;;25.23;51.25;100679.32;184797;1235;45952;-83
2023/07/18 09:10:36;;;;;;;3.30;1.40;;;;;;;25.30;49.45;100672.55;184754;1235;44665;-84
2023/07/18 09:14:38;;;;;;;4.80;1.80;;;;;;;25.34;50.18;100669.14;184678;1234;46024;-83
2023/07/18 09:18:51;;;;;;;1.80;1.00;;;;;;;25.50;49.98;100667.22;184831;1234;57819;-83
2023/07/18 09:23:00;;;;;;;2.40;1.10;;;;;;;25.39;48.76;100666.83;184965;1233;46008;-84
2023/07/18 09:27:14;;;;;;;3.60;1.00;;;;;;;25.49;48.38;100659.02;184862;1233;44786;-84
2023/07/18 09:31:17;;;;;;;2.00;1.30;;;;;;;25.55;49.23;100652.83;185034;1235;43992;-84
2023/07/18 09:35:20;;;;;;;1.60;0.80;;;;;;;25.67;48.41;100648.16;185065;1233;45997;-84
2023/07/18 09:39:24;;;;;;;3.60;1.70;;;;;;;25.75;47.03;100643.59;184778;1233;57925;-84
2023/07/18 09:43:28;;;;;;;3.40;1.30;;;;;;;25.85;48.55;100639.27;184878;1234;45938;-84
2023/07/18 09:47:34;;;;;;;4.20;1.00;;;;;;;25.77;47.63;100640.06;184964;1233;45907;-84
2023/07/18 09:51:38;;;;;;;1.30;0.70;;;;;;;25.85;47.06;100633.60;184873;1235;45885;-84
2023/07/18 09:55:41;;;;;;;2.00;1.20;;;;;;;25.98;46.29;100626.89;185069;1234;46014;-84
2023/07/18 09:59:47;;;;;;;2.20;1.10;;;;;;;26.12;47.29;100624.23;185167;1235;58528;-84
2023/07/18 10:03:52;;;;;;;4.50;1.40;;;;;;;26.05;46.51;100618.14;184849;1234;45928;-84
2023/07/18 10:07:55;;;;;;;0.70;0.60;;;;;;;26.19;47.39;100608.32;184923;1233;43912;-84
2023/07/18 10:11:57;;;;;;;3.00;1.10;;;;;;;26.29;46.28;100602.16;185055;1235;45944;-84
2023/07/18 10:16:11;;;;;;;0.80;0.60;;;;;;;26.30;46.03;100595.95;185203;1235;44541;-84
2023/07/18 10:20:20;;;;;;;3.10;1.70;;;;;;;26.35;46.71;100594.48;185236;1235;57774;-83
2023/07/18 10:24:24;;;;;;;33.70;6.20;;;;;;;26.55;47.79;100585.95;185138;1233;45804;-84
2023/07/18 10:28:42;;;;;;;4.40;1.40;;;;;;;26.44;45.42;100581.39;184955;1234;45998;-84
2023/07/18 10:32:54;;;;;;;6.50;1.60;;;;;;;26.38;46.02;100574.60;184922;1235;46084;-84
2023/07/18 10:36:59;;;;;;;5.20;1.70;;;;;;;26.24;45.12;100569.16;184966;1234;44491;-84
2023/07/18 10:41:01;;;;;;;2.60;0.80;;;;;;;26.38;47.69;100564.25;184954;1235;59015;-84
2023/07/18 10:45:06;;;;;;;4.50;1.80;;;;;;;26.31;45.31;100563.08;184955;1234;45869;-84
2023/07/18 10:49:10;;;;;;;1.60;0.70;;;;;;;26.19;45.25;100557.52;185036;1235;45945;-84
2023/07/18 10:53:20;;;;;;;1.80;1.00;;;;;;;26.31;45.62;100551.34;184907;1234;45920;-84
2023/07/18 10:57:32;;;;;;;10.40;1.80;;;;;;;26.59;46.04;100544.28;184887;1234;45942;-84
2023/07/18 11:01:34;;;;;;;2.30;1.10;;;;;;;26.75;46.08;100537.93;184886;1233;57276;-84
2023/07/18 11:05:39;;;;;;;3.90;1.10;;;;;;;26.84;44.31;100532.05;185063;1234;46088;-84
2023/07/18 11:09:42;;;;;;;2.10;0.70;;;;;;;26.77;44.71;100527.78;185033;1233;44445;-84
2023/07/18 11:13:44;;;;;;;0.90;0.50;;;;;;;26.67;44.69;100518.34;185052;1235;44140;-85
2023/07/18 11:17:47;;;;;;;5.60;2.20;;;;;;;26.67;44.47;100515.73;184874;1236;44543;-84
2023/07/18 11:21:49;;;;;;;4.70;1.10;;;;;;;26.84;43.90;100514.58;185357;1234;57954;-84
2023/07/18 11:25:53;;;;;;;1.30;0.50;;;;;;;26.99;44.37;100503.45;185117;1234;44774;-84
2023/07/18 11:29:57;;;;;;;2.50;0.80;;;;;;;27.20;43.51;100497.50;185024;1234;46008;-84
2023/07/18 11:34:03;;;;;;;1.70;0.70;;;;;;;27.24;43.19;100491.60;185002;1233;45888;-83
2023/07/18 11:38:08;;;;;;;2.70;0.60;;;;;;;27.10;42.32;100488.73;185063;1234;44803;-84
2023/07/18 11:42:11;;;;;;;2.20;0.70;;;;;;;27.11;42.97;100474.23;185265;1233;57915;-83
2023/07/18 11:46:13;;;;;;;2.00;0.80;;;;;;;26.98;42.52;100477.42;185104;1234;45321;-84
2023/07/18 11:50:15;;;;;;;3.60;0.50;;;;;;;26.92;42.47;100472.62;185233;1234;45907;-84
2023/07/18 11:54:26;;;;;;;0.90;0.70;;;;;;;26.99;43.37;100455.63;185575;1234;45966;-84
2023/07/18 11:58:28;;;;;;;4.30;1.10;;;;;;;27.07;43.29;100458.04;184998;1235;45908;-84
2023/07/18 12:02:30;;;;;;;1.00;0.60;;;;;;;27.19;43.22;100440.82;185359;1234;59378;-84
2023/07/18 12:06:32;;;;;;;3.00;0.90;;;;;;;27.27;42.94;100446.44;185131;1233;46040;-84
2023/07/18 12:10:34;;;;;;;2.20;0.70;;;;;;;27.39;43.31;100441.94;185003;1233;43794;-84
2023/07/18 12:14:36;;;;;;;2.60;0.80;;;;;;;27.38;42.37;100444.70;185136;1233;45226;-84
2023/07/18 12:18:38;;;;;;;1.60;1.00;;;;;;;27.60;42.56;100439.67;184928;1234;45267;-84
2023/07/18 12:22:40;;;;;;;1.70;0.90;;;;;;;27.71;42.89;100438.84;185222;1234;59177;-83
2023/07/18 12:26:44;;;;;;;2.20;1.30;;;;;;;27.74;42.61;100436.09;185042;1234;45991;-83
2023/07/18 12:30:47;;;;;;;4.70;1.60;;;;;;;27.79;41.34;100427.69;184955;1233;44547;-84
2023/07/18 12:34:49;;;;;;;1.80;0.80;;;;;;;27.86;42.21;100417.94;185004;1234;46007;-84
2023/07/18 12:38:51;;;;;;;2.20;1.00;;;;;;;28.08;42.42;100402.80;185092;1234;45959;-84
2023/07/18 12:42:54;;;;;;;5.00;0.50;;;;;;;28.22;41.87;100395.25;185302;1237;59965;-84
2023/07/18 12:46:56;;;;;;;5.00;1.80;;;;;;;28.27;41.16;100391.14;185194;1234;45965;-84
2023/07/18 12:50:59;;;;;;;1.40;0.90;;;;;;;27.95;39.69;100390.97;185137;1234;43371;-84
2023/07/18 12:55:01;;;;;;;5.60;1.90;;;;;;;27.99;41.69;100378.33;185016;1234;45986;-84
2023/07/18 12:59:05;;;;;;;1.10;0.80;;;;;;;28.05;41.41;100374.46;185291;1234;44097;-84
2023/07/18 13:03:07;;;;;;;2.70;0.90;;;;;;;28.22;41.45;100364.66;185169;1237;58623;-83
2023/07/18 13:07:10;;;;;;;3.80;1.30;;;;;;;28.40;41.58;100365.35;185226;1234;44407;-84
2023/07/18 13:11:12;;;;;;;14.30;1.20;;;;;;;28.53;41.78;100359.69;185160;1234;45333;-84
2023/07/18 13:15:14;;;;;;;2.20;0.50;;;;;;;28.77;41.93;100367.11;185341;1233;43661;-84
2023/07/18 13:19:17;;;;;;;6.30;0.90;;;;;;;28.66;40.38;100380.23;185264;1234;46001;-84
2023/07/18 13:23:19;;;;;;;2.10;0.90;;;;;;;28.56;40.57;100385.46;185141;1233;59282;-84
2023/07/18 13:27:21;;;;;;;1.90;1.40;;;;;;;28.42;40.83;100386.02;185319;1233;46027;-84
2023/07/18 13:31:24;;;;;;;23.10;3.10;;;;;;;28.68;42.89;100373.83;185579;1233;46003;-84
2023/07/18 13:35:27;;;;;;;0.80;0.60;;;;;;;28.75;40.38;100359.89;185449;1234;45973;-84
2023/07/18 13:39:29;;;;;;;3.20;0.90;;;;;;;28.65;40.23;100343.83;185304;1234;44887;-84
2023/07/18 13:43:31;;;;;;;2.40;0.60;;;;;;;28.52;40.55;100334.66;185382;1237;60550;-84
2023/07/18 13:47:36;;;;;;;3.10;0.70;;;;;;;28.48;40.70;100335.30;185477;1233;46088;-85
2023/07/18 13:51:38;;;;;;;4.00;0.80;;;;;;;28.66;41.27;100339.70;185026;1233;45925;-84
2023/07/18 13:55:41;;;;;;;1.50;0.70;;;;;;;28.89;40.52;100338.91;185249;1234;45483;-85
2023/07/18 13:59:44;;;;;;;2.60;1.50;;;;;;;29.13;40.93;100331.32;184992;1233;45995;-86
2023/07/18 14:03:46;;;;;;;2.20;0.90;;;;;;;29.25;40.41;100315.69;185361;1235;58486;-85
2023/07/18 14:07:48;;;;;;;8.60;1.60;;;;;;;29.15;40.36;100317.23;185347;1233;45964;-85
2023/07/18 14:11:51;;;;;;;2.10;0.90;;;;;;;29.12;40.24;100316.64;185945;1237;45861;-85
2023/07/18 14:15:54;;;;;;;0.90;0.60;;;;;;;29.14;40.27;100309.86;185443;1237;45055;-85
2023/07/18 14:19:57;;;;;;;4.00;1.30;;;;;;;29.27;40.94;100288.48;185562;1234;44526;-84
2023/07/18 14:23:59;;;;;;;4.40;1.70;;;;;;;29.11;39.51;100287.74;185204;1234;58998;-84
2023/07/18 14:28:01;;;;;;;2.60;0.80;;;;;;;29.01;39.95;100280.48;185362;1234;44480;-85
2023/07/18 14:32:09;;;;;;;1.10;0.80;;;;;;;28.85;40.73;100280.70;185277;1236;43970;-85
2023/07/18 14:36:11;;;;;;;2.80;1.10;;;;;;;28.64;41.19;100292.76;185155;1234;45945;-85
2023/07/18 14:40:13;;;;;;;2.50;1.60;;;;;;;28.68;41.57;100293.38;185052;1235;46013;-84
2023/07/18 14:44:15;;;;;;;1.40;0.90;;;;;;;28.70;41.60;100287.71;185124;1234;59421;-82
2023/07/18 14:48:19;;;;;;;1.50;0.90;;;;;;;28.50;40.91;100286.00;185155;1233;45844;-84
2023/07/18 14:52:21;;;;;;;1.50;0.40;;;;;;;28.26;40.98;100288.30;185408;1234;43425;-85
2023/07/18 14:56:24;;;;;;;1.00;0.50;;;;;;;28.26;41.53;100296.27;185085;1237;46197;-85
2023/07/18 15:00:27;;;;;;;3.30;1.20;;;;;;;28.30;41.41;100293.39;185141;1234;44145;-84
2023/07/18 15:04:29;;;;;;;3.30;0.70;;;;;;;28.16;40.40;100286.83;185253;1234;59290;-84
2023/07/18 15:08:33;;;;;;;1.60;0.90;;;;;;;28.18;41.01;100283.41;185003;1234;46032;-84
2023/07/18 15:12:39;;;;;;;3.30;1.30;;;;;;;28.27;41.24;100279.12;185454;1234;43600;-86
2023/07/18 15:16:42;;;;;;;2.70;0.90;;;;;;;28.08;41.04;100269.92;184988;1234;44101;-86
2023/07/18 15:20:44;;;;;;;3.00;1.10;;;;;;;28.23;41.63;100262.15;184989;1237;44745;-85
2023/07/18 15:24:46;;;;;;;1.00;0.60;;;;;;;28.39;40.66;100263.86;185299;1234;58026;-83
2023/07/18 15:28:48;;;;;;;4.80;1.10;;;;;;;28.39;40.68;100249.95;185196;1234;46142;-83
2023/07/18 15:32:50;;;;;;;2.00;0.80;;;;;;;28.26;40.62;100242.98;185130;1234;45977;-84
2023/07/18 15:36:53;;;;;;;6.10;1.30;;;;;;;27.96;41.00;100235.66;185118;1234;45983;-84
2023/07/18 15:40:55;;;;;;;10.30;3.20;;;;;;;27.70;41.12;100236.26;184989;1237;44843;-84
2023/07/18 15:44:57;;;;;;;4.70;1.40;;;;;;;27.53;41.86;100229.02;184876;1237;58646;-84
2023/07/18 15:48:59;;;;;;;49.60;10.40;;;;;;;27.47;42.35;100213.35;185119;1234;46120;-85
2023/07/18 15:53:02;;;;;;;4.60;1.30;;;;;;;27.53;41.65;100209.02;185337;1234;44450;-84
2023/07/18 15:57:06;;;;;;;3.00;1.40;;;;;;;27.60;41.39;100207.08;185289;1235;46082;-84
2023/07/18 16:01:08;;;;;;;8.40;2.40;;;;;;;27.70;41.47;100200.73;185173;1234;45991;-84
2023/07/18 16:05:10;;;;;;;12.10;2.80;;;;;;;27.97;42.35;100181.58;185120;1233;58463;-84
2023/07/18 16:09:12;;;;;;;1.40;1.10;;;;;;;28.15;40.51;100172.74;184925;1234;44761;-84
2023/07/18 16:13:15;;;;;;;7.60;3.10;;;;;;;28.00;41.36;100172.45;185204;1237;45138;-84
2023/07/18 16:17:17;;;;;;;5.20;1.60;;;;;;;27.95;41.07;100174.44;185202;1234;44471;-84
2023/07/18 16:21:20;;;;;;;6.80;2.00;;;;;;;27.99;41.63;100164.13;185238;1233;45973;-85
2023/07/18 16:25:22;;;;;;;22.50;5.90;;;;;;;28.05;41.26;100165.87;184873;1234;58458;-85
2023/07/18 16:29:25;;;;;;;2.20;1.10;;;;;;;28.17;40.94;100155.55;185003;1234;44580;-85
2023/07/18 16:33:27;;;;;;;8.50;3.20;;;;;;;28.28;41.21;100152.63;184961;1233;44644;-85
2023/07/18 16:37:29;;;;;;;1.60;1.10;;;;;;;28.33;40.45;100149.39;184920;1234;44376;-85
2023/07/18 16:41:31;;;;;;;1.60;1.00;;;;;;;28.33;39.99;100145.98;185078;1234;46156;-84
2023/07/18 16:45:36;;;;;;;2.50;0.90;;;;;;;28.16;39.82;100147.92;185213;1234;57975;-85
2023/07/18 16:49:38;;;;;;;1.80;0.80;;;;;;;27.99;40.03;100146.04;185301;1233;46004;-84
2023/07/18 16:53:40;;;;;;;2.40;1.20;;;;;;;27.88;40.17;100144.17;185066;1234;46094;-85
2023/07/18 16:57:42;;;;;;;3.30;1.10;;;;;;;27.72;39.94;100147.38;184759;1233;46124;-85
2023/07/18 17:01:44;;;;;;;1.40;1.10;;;;;;;27.58;39.89;100142.76;185296;1234;46050;-85
2023/07/18 17:05:46;;;;;;;4.00;1.80;;;;;;;27.46;40.44;100135.20;185028;1234;58252;-85
2023/07/18 17:09:48;;;;;;;3.50;1.80;;;;;;;27.34;41.42;100127.71;185053;1233;43977;-85
2023/07/18 17:13:50;;;;;;;6.70;3.40;;;;;;;27.26;42.10;100123.98;185099;1234;44628;-85
2023/07/18 17:17:54;;;;;;;3.70;3.10;;;;;;;27.10;42.25;100128.07;184856;1233;46209;-85
2023/07/18 17:21:57;;;;;;;4.80;2.40;;;;;;;26.96;42.45;100123.80;184652;1234;45995;-86
2023/07/18 17:25:59;;;;;;;6.90;3.40;;;;;;;26.83;42.68;100118.41;184760;1233;57788;-85
2023/07/18 17:30:04;;;;;;;4.40;2.50;;;;;;;26.68;42.84;100115.23;184887;1234;44871;-84
2023/07/18 17:34:07;;;;;;;5.00;2.90;;;;;;;26.53;43.20;100111.40;185243;1233;44751;-82
2023/07/18 17:38:09;;;;;;;3.90;2.70;;;;;;;26.43;43.37;100111.42;185401;1234;45963;-82
2023/07/18 17:42:11;;;;;;;6.80;3.00;;;;;;;26.32;43.36;100109.86;185289;1234;44492;-82
2023/07/18 17:46:13;;;;;;;4.30;2.40;;;;;;;26.19;43.46;100105.66;185323;1234;58393;-82
2023/07/18 17:50:15;;;;;;;10.00;4.20;;;;;;;26.11;43.82;100106.10;185353;1234;44695;-82
2023/07/18 17:54:18;;;;;;;5.00;2.30;;;;;;;25.99;44.42;100105.73;185374;1234;45960;-82
2023/07/18 17:58:20;;;;;;;2.90;1.90;;;;;;;25.84;45.06;100112.70;185433;1233;44159;-82
2023/07/18 18:02:22;;;;;;;4.50;2.90;;;;;;;25.64;45.33;100117.50;185378;1234;46214;-82
2023/07/18 18:06:24;;;;;;;2.50;1.70;;;;;;;25.46;45.59;100114.75;185453;1233;57687;-81
2023/07/18 18:10:26;;;;;;;2.80;2.40;;;;;;;25.25;46.00;100111.05;185561;1233;46062;-81
2023/07/18 18:14:28;;;;;;;4.60;2.10;;;;;;;25.09;46.33;100107.98;185394;1234;45990;-81
2023/07/18 18:18:30;;;;;;;3.50;2.40;;;;;;;25.01;46.36;100109.48;185183;1233;43760;-81
2023/07/18 18:22:33;;;;;;;3.70;1.80;;;;;;;24.92;46.65;100107.95;185459;1234;46037;-82
2023/07/18 18:26:40;;;;;;;4.60;2.30;;;;;;;24.82;46.95;100103.61;185227;1237;59451;-82
2023/07/18 18:30:42;;;;;;;5.40;2.30;;;;;;;24.69;47.09;100102.17;185203;1236;45976;-82
2023/07/18 18:34:44;;;;;;;6.80;2.80;;;;;;;24.57;47.46;100107.33;185195;1234;44466;-82